createdAt,value
2019-02-23T00:00:14.349Z,154.70
2019-02-23T00:02:42.620Z,168.20
2019-02-23T00:05:10.884Z,159.97
2019-02-23T00:07:39.196Z,172.22
2019-02-23T00:10:08.102Z,164.37
2019-02-23T00:12:36.379Z,177.27
2019-02-23T00:15:06.508Z,172.50
2019-02-23T00:17:34.792Z,174.72
2019-02-23T00:20:03.436Z,174.97
2019-02-23T00:22:31.810Z,158.03
2019-02-23T00:25:00.109Z,156.55
2019-02-23T00:27:28.642Z,148.87
2019-02-23T00:29:56.929Z,152.32
2019-02-23T00:32:25.190Z,179.50
2019-02-23T00:34:53.464Z,184.78
2019-02-23T00:37:21.844Z,169.72
2019-02-23T00:39:50.276Z,184.10
2019-02-23T00:42:18.547Z,150.55
2019-02-23T00:44:46.860Z,155.85
2019-02-23T00:47:15.197Z,174.68
2019-02-23T00:49:43.464Z,170.53
2019-02-23T00:52:11.752Z,156.90
2019-02-23T00:54:40.018Z,167.05
2019-02-23T00:57:08.610Z,144.60
2019-02-23T00:59:37.158Z,134.25
2019-02-23T01:02:05.420Z,121.00
2019-02-23T01:04:33.691Z,131.65
2019-02-23T01:07:01.989Z,132.27
2019-02-23T01:09:30.249Z,134.70
2019-02-23T01:11:58.504Z,164.25
2019-02-23T01:14:27.148Z,151.65
2019-02-23T01:16:55.429Z,155.20
2019-02-23T01:19:23.771Z,147.87
2019-02-23T01:21:52.067Z,130.65
2019-02-23T01:24:20.326Z,137.97
2019-02-23T01:26:48.597Z,126.00
2019-02-23T01:29:16.908Z,128.60
2019-02-23T01:31:45.167Z,117.72
2019-02-23T01:34:13.694Z,113.62
2019-02-23T01:36:41.989Z,125.42
2019-02-23T01:39:10.257Z,115.88
2019-02-23T01:41:38.531Z,126.82
2019-02-23T01:44:06.825Z,120.30
2019-02-23T01:46:35.102Z,134.22
2019-02-23T01:49:03.426Z,124.12
2019-02-23T01:51:31.990Z,135.55
2019-02-23T01:54:00.262Z,155.50
2019-02-23T01:56:28.535Z,127.67
2019-02-23T01:58:56.827Z,129.87
2019-02-23T02:01:25.098Z,111.65
2019-02-23T02:03:53.368Z,114.15
2019-02-23T02:06:21.668Z,135.60
2019-02-23T02:08:50.015Z,127.53
2019-02-23T02:11:18.610Z,115.30
2019-02-23T02:13:46.908Z,114.03
2019-02-23T02:16:15.177Z,112.05
2019-02-23T02:18:43.717Z,105.80
2019-02-23T02:21:12.005Z,98.35
2019-02-23T02:23:40.259Z,95.65
2019-02-23T02:26:08.532Z,100.05
2019-02-23T02:28:36.824Z,102.72
2019-02-23T02:31:05.361Z,96.30
2019-02-23T02:33:33.617Z,102.58
2019-02-23T02:36:02.181Z,121.55
2019-02-23T02:38:30.440Z,127.92
2019-02-23T02:40:58.713Z,113.08
2019-02-23T02:43:27.018Z,111.25
2019-02-23T02:45:55.288Z,117.28
2019-02-23T02:48:23.563Z,125.40
2019-02-23T02:50:51.872Z,106.63
2019-02-23T02:53:20.195Z,121.97
2019-02-23T02:55:48.463Z,123.53
2019-02-23T02:58:16.770Z,117.60
2019-02-23T03:00:45.121Z,122.47
2019-02-23T03:03:13.391Z,130.03
2019-02-23T03:05:41.690Z,118.80
2019-02-23T03:08:09.945Z,128.18
2019-02-23T03:10:38.551Z,138.35
2019-02-23T03:13:06.860Z,135.57
2019-02-23T03:15:35.394Z,136.68
2019-02-23T03:18:03.677Z,128.62
2019-02-23T03:20:36.599Z,135.95
2019-02-23T03:23:01.974Z,142.57
2019-02-23T03:25:30.252Z,122.45
2019-02-23T03:27:58.626Z,122.50
2019-02-23T03:30:26.927Z,112.03
2019-02-23T03:32:55.263Z,110.68
2019-02-23T03:35:23.557Z,110.40
2019-02-23T03:37:51.842Z,112.90
2019-02-23T03:40:20.111Z,100.97
2019-02-23T03:42:48.405Z,101.97
2019-02-23T03:45:16.664Z,105.15
2019-02-23T03:47:44.936Z,95.95
2019-02-23T03:50:13.242Z,116.53
2019-02-23T03:52:41.504Z,119.20
2019-02-23T03:55:09.920Z,116.25
2019-02-23T03:57:38.259Z,103.47
2019-02-23T04:00:09.423Z,122.55
2019-02-23T04:02:37.693Z,103.75
2019-02-23T04:05:06.148Z,101.15
2019-02-23T04:07:34.405Z,97.50
2019-02-23T04:10:02.674Z,99.83
2019-02-23T04:12:31.049Z,97.90
2019-02-23T04:14:59.317Z,89.22
2019-02-23T04:17:27.577Z,99.15
2019-02-23T04:19:55.878Z,105.40
2019-02-23T04:22:24.209Z,111.80
2019-02-23T04:24:52.482Z,103.47
2019-02-23T04:27:20.764Z,91.78
2019-02-23T04:29:49.029Z,98.17
2019-02-23T04:32:17.315Z,95.57
2019-02-23T04:34:45.662Z,92.70
2019-02-23T04:37:13.921Z,96.30
2019-02-23T04:39:42.255Z,90.87
2019-02-23T04:42:10.559Z,91.47
2019-02-23T04:44:38.826Z,83.92
2019-02-23T04:47:07.084Z,95.47
2019-02-23T04:49:35.380Z,95.38
2019-02-23T04:52:03.922Z,94.55
2019-02-23T04:54:35.513Z,93.35
2019-02-23T04:57:03.786Z,82.45
2019-02-23T04:59:32.311Z,84.37
2019-02-23T05:02:00.574Z,99.55
2019-02-23T05:04:28.869Z,100.10
2019-02-23T05:06:57.392Z,91.60
2019-02-23T05:09:25.640Z,91.47
2019-02-23T05:11:53.926Z,80.80
2019-02-23T05:14:22.197Z,84.07
2019-02-23T05:16:50.544Z,92.12
2019-02-23T05:19:19.090Z,101.20
2019-02-23T05:21:47.349Z,98.78
2019-02-23T05:24:15.600Z,94.40
2019-02-23T05:26:43.887Z,90.28
2019-02-23T05:29:12.146Z,80.60
2019-02-23T05:31:40.801Z,79.75
2019-02-23T05:34:09.162Z,89.85
2019-02-23T05:36:37.429Z,97.85
2019-02-23T05:39:06.244Z,94.87
2019-02-23T05:41:34.539Z,88.42
2019-02-23T05:44:02.885Z,70.40
2019-02-23T05:46:31.159Z,68.87
2019-02-23T05:48:59.451Z,70.85
2019-02-23T05:51:38.385Z,76.25
2019-02-23T05:53:57.702Z,76.07
2019-02-23T05:56:26.000Z,76.77
2019-02-23T05:58:54.263Z,91.00
2019-02-23T06:01:22.532Z,108.37
2019-02-23T06:03:50.911Z,90.00
2019-02-23T06:06:19.205Z,79.50
2019-02-23T06:08:47.471Z,82.33
2019-02-23T06:11:15.776Z,101.87
2019-02-23T06:13:44.114Z,108.10
2019-02-23T06:16:12.457Z,98.97
2019-02-23T06:18:40.760Z,92.15
2019-02-23T06:21:09.029Z,91.53
2019-02-23T06:23:37.290Z,87.65
2019-02-23T06:26:05.593Z,81.90
2019-02-23T06:28:33.917Z,82.50
2019-02-23T06:31:02.181Z,78.07
2019-02-23T06:33:30.473Z,80.38
2019-02-23T06:35:58.745Z,74.35
2019-02-23T06:38:27.039Z,64.05
2019-02-23T06:40:55.324Z,85.10
2019-02-23T06:43:23.583Z,67.92
2019-02-23T06:45:51.850Z,64.07
2019-02-23T06:48:20.244Z,66.95
2019-02-23T06:50:48.577Z,70.28
2019-02-23T06:53:16.845Z,73.25
2019-02-23T06:55:45.129Z,72.78
2019-02-23T06:58:13.415Z,78.67
2019-02-23T07:00:41.687Z,68.85
2019-02-23T07:03:09.971Z,71.90
2019-02-23T07:05:38.528Z,63.20
2019-02-23T07:08:06.778Z,65.80
2019-02-23T07:10:35.071Z,64.70
2019-02-23T07:13:03.329Z,66.40
2019-02-23T07:15:31.599Z,68.67
2019-02-23T07:18:00.254Z,62.38
2019-02-23T07:20:28.528Z,62.70
2019-02-23T07:22:56.784Z,62.65
2019-02-23T07:25:25.071Z,67.00
2019-02-23T07:27:53.348Z,61.83
2019-02-23T07:30:21.616Z,57.13
2019-02-23T07:32:49.910Z,55.92
2019-02-23T07:35:18.456Z,54.60
2019-02-23T07:37:46.792Z,62.17
2019-02-23T07:40:16.429Z,54.53
2019-02-23T07:42:44.709Z,52.90
2019-02-23T07:45:12.982Z,53.38
2019-02-23T07:47:41.285Z,54.27
2019-02-23T07:50:15.422Z,50.50
2019-02-23T07:52:43.944Z,51.18
2019-02-23T07:55:12.853Z,50.60
2019-02-23T07:57:41.149Z,49.58
2019-02-23T08:00:12.884Z,48.25
2019-02-23T08:02:41.179Z,47.35
2019-02-23T08:05:10.091Z,48.13
2019-02-23T08:07:39.910Z,49.55
2019-02-23T08:10:12.639Z,46.60
2019-02-23T08:12:41.001Z,42.78
2019-02-23T08:15:11.028Z,45.60
2019-02-23T08:17:41.390Z,46.20
2019-02-23T08:20:11.197Z,43.98
2019-02-23T08:22:39.573Z,41.58
2019-02-23T08:25:12.813Z,42.45
2019-02-23T08:27:41.106Z,45.48
2019-02-23T08:30:17.173Z,41.58
2019-02-23T08:32:45.537Z,42.08
2019-02-23T08:35:13.901Z,44.48
2019-02-23T08:37:42.274Z,40.08
2019-02-23T08:40:13.830Z,40.55
2019-02-23T08:42:42.092Z,36.88
2019-02-23T08:45:10.936Z,36.40
2019-02-23T08:47:39.292Z,34.78
2019-02-23T08:50:10.654Z,34.33
2019-02-23T08:52:48.682Z,34.70
2019-02-23T08:55:10.070Z,33.45
2019-02-23T08:57:38.431Z,32.80
2019-02-23T09:00:15.526Z,30.55
2019-02-23T09:09:51.781Z,26.35
2019-02-23T09:12:20.128Z,30.95
2019-02-23T09:14:48.527Z,29.20
2019-02-23T09:17:17.273Z,32.73
2019-02-23T09:19:47.468Z,29.60
2019-02-23T09:22:20.823Z,28.25
2019-02-23T09:24:49.499Z,25.77
2019-02-23T09:27:18.031Z,28.45
2019-02-23T09:29:46.367Z,25.92
2019-02-23T09:32:14.800Z,23.65
2019-02-23T09:34:43.241Z,25.88
2019-02-23T09:37:11.626Z,25.37
2019-02-23T09:39:40.068Z,26.77
2019-02-23T09:42:08.432Z,27.00
2019-02-23T09:44:36.870Z,25.25
2019-02-23T09:47:05.327Z,25.85
2019-02-23T09:49:33.757Z,26.27
2019-02-23T09:52:02.066Z,25.80
2019-02-23T09:54:30.758Z,24.15
2019-02-23T09:56:59.135Z,22.95
2019-02-23T09:59:27.561Z,21.62
2019-02-23T10:01:56.092Z,22.55
2019-02-23T10:04:26.167Z,23.80
2019-02-23T10:06:54.596Z,26.52
2019-02-23T10:09:23.049Z,25.10
2019-02-23T10:11:51.717Z,23.95
2019-02-23T10:14:20.327Z,22.10
2019-02-23T10:16:48.769Z,22.37
2019-02-23T10:19:17.117Z,20.27
2019-02-23T10:21:46.723Z,23.05
2019-02-23T10:24:15.061Z,21.93
2019-02-23T10:26:43.396Z,20.95
2019-02-23T10:29:11.714Z,18.30
2019-02-23T10:31:43.616Z,21.02
2019-02-23T10:34:11.997Z,19.23
2019-02-23T10:36:40.438Z,22.05
2019-02-23T10:39:10.884Z,20.02
2019-02-23T10:41:40.852Z,20.68
2019-02-23T10:44:10.804Z,17.70
2019-02-23T10:46:39.186Z,25.08
2019-02-23T10:49:08.957Z,23.12
2019-02-23T10:54:06.781Z,19.60
2019-02-23T10:56:35.550Z,18.95
2019-02-23T10:59:03.995Z,21.20
2019-02-23T11:01:32.542Z,23.32
2019-02-23T11:04:00.881Z,17.98
2019-02-23T11:06:29.775Z,18.73
2019-02-23T11:08:58.173Z,22.20
2019-02-23T11:11:26.546Z,20.00
2019-02-23T11:13:54.866Z,21.55
2019-02-23T11:16:23.228Z,21.33
2019-02-23T11:18:51.539Z,20.77
2019-02-23T11:21:19.953Z,22.95
2019-02-23T11:23:48.386Z,18.37
2019-02-23T11:26:16.746Z,18.02
2019-02-23T11:28:45.157Z,20.40
2019-02-23T11:31:13.509Z,18.57
2019-02-23T11:33:42.199Z,22.13
2019-02-23T11:36:10.646Z,16.37
2019-02-23T11:38:38.984Z,17.82
2019-02-23T11:41:07.435Z,21.93
2019-02-23T11:43:36.194Z,17.85
2019-02-23T11:46:08.446Z,18.95
2019-02-23T11:48:34.922Z,16.37
2019-02-23T11:51:03.268Z,14.60
2019-02-23T11:53:32.121Z,15.35
2019-02-23T11:56:00.561Z,15.78
2019-02-23T11:58:29.141Z,15.78
2019-02-23T12:00:58.137Z,18.02
2019-02-23T12:03:27.021Z,15.88
2019-02-23T12:05:55.435Z,16.67
2019-02-23T12:08:23.972Z,14.23
2019-02-23T12:10:52.494Z,15.53
2019-02-23T12:13:20.956Z,13.93
2019-02-23T12:15:49.534Z,15.72
2019-02-23T12:18:18.021Z,14.90
2019-02-23T12:20:48.490Z,14.73
2019-02-23T12:23:16.908Z,12.13
2019-02-23T12:25:45.410Z,13.75
2019-02-23T12:28:13.972Z,14.20
2019-02-23T12:30:42.415Z,15.45
2019-02-23T12:33:10.897Z,13.22
2019-02-23T12:35:39.168Z,13.65
2019-02-23T12:38:07.536Z,14.93
2019-02-23T12:40:35.822Z,16.97
2019-02-23T12:43:04.236Z,15.18
2019-02-23T12:45:32.636Z,16.82
2019-02-23T12:48:01.309Z,15.23
2019-02-23T12:50:29.670Z,17.05
2019-02-23T12:53:00.791Z,16.30
2019-02-23T12:55:29.223Z,19.27
2019-02-23T12:57:59.271Z,24.98
2019-02-23T13:00:27.827Z,16.32
2019-02-23T13:03:06.060Z,16.62
2019-02-23T13:13:55.366Z,11.15
2019-02-23T13:16:26.934Z,12.95
2019-02-23T13:19:01.147Z,11.90
2019-02-23T13:21:36.045Z,13.65
2019-02-23T13:24:27.351Z,14.68
2019-02-23T13:27:14.065Z,14.93
2019-02-23T13:29:48.270Z,15.72
2019-02-23T13:32:34.877Z,16.48
2019-02-23T13:35:18.547Z,15.35
2019-02-23T13:38:14.407Z,19.10
2019-02-23T13:41:05.606Z,14.00
2019-02-23T13:43:52.451Z,15.32
2019-02-23T13:46:35.897Z,16.77
2019-02-23T13:49:13.396Z,16.73
2019-02-23T13:51:53.546Z,20.12
2019-02-23T13:54:38.332Z,19.20
2019-02-23T13:57:20.950Z,13.85
2019-02-23T14:00:08.852Z,15.43
2019-02-23T14:02:56.918Z,15.10
2019-02-23T14:05:37.370Z,17.62
2019-02-23T14:08:26.367Z,20.00
2019-02-23T14:11:09.966Z,17.10
2019-02-23T14:13:41.643Z,16.97
2019-02-23T14:16:25.255Z,16.62
2019-02-23T14:18:59.654Z,16.90
2019-02-23T14:21:31.545Z,20.60
2019-02-23T14:24:17.408Z,18.90
2019-02-23T14:27:01.082Z,18.98
2019-02-23T14:29:52.297Z,17.67
2019-02-23T14:32:35.826Z,16.95
2019-02-23T14:35:26.872Z,15.93
2019-02-23T14:38:04.528Z,17.62
2019-02-23T14:40:51.339Z,16.60
2019-02-23T14:43:28.676Z,16.60
2019-02-23T14:46:09.183Z,16.65
2019-02-23T14:49:03.619Z,17.35
2019-02-23T14:52:00.828Z,17.37
2019-02-23T14:55:00.897Z,17.75
2019-02-23T14:57:52.194Z,19.07
2019-02-23T15:00:32.892Z,17.65
2019-02-23T15:03:24.468Z,20.70
2019-02-23T15:06:02.019Z,19.62
2019-02-23T15:08:36.551Z,17.87
2019-02-23T15:11:20.098Z,19.73
2019-02-23T15:14:00.875Z,18.45
2019-02-23T15:16:53.722Z,21.12
2019-02-23T15:19:33.665Z,19.25
2019-02-23T15:29:50.891Z,21.05
2019-02-23T15:32:25.120Z,20.85
2019-02-23T15:35:21.150Z,20.17
2019-02-23T15:37:52.748Z,21.65
2019-02-23T15:40:33.256Z,19.87
2019-02-23T15:43:19.894Z,21.82
2019-02-23T15:48:59.759Z,21.25
2019-02-23T15:51:28.189Z,25.10
2019-02-23T15:53:58.208Z,21.37
2019-02-23T15:56:26.620Z,21.93
2019-02-23T15:58:55.540Z,21.17
2019-02-23T16:01:23.970Z,25.57
2019-02-23T16:03:52.536Z,21.37
2019-02-23T16:06:21.171Z,20.43
2019-02-23T16:08:49.584Z,19.37
2019-02-23T16:11:18.012Z,19.75
2019-02-23T16:13:46.418Z,20.20
2019-02-23T16:16:15.200Z,19.65
2019-02-23T16:18:43.644Z,19.07
2019-02-23T16:21:12.015Z,18.80
2019-02-23T16:23:40.448Z,17.60
2019-02-23T16:26:09.235Z,20.15
2019-02-23T16:28:37.637Z,21.30
2019-02-23T16:31:05.989Z,18.67
2019-02-23T16:33:34.402Z,20.72
2019-02-23T16:36:02.808Z,18.17
2019-02-23T16:38:31.254Z,21.05
2019-02-23T16:40:59.720Z,20.35
2019-02-23T16:43:30.303Z,19.07
2019-02-23T16:45:58.739Z,19.30
2019-02-23T16:48:27.223Z,21.33
2019-02-23T16:50:55.592Z,20.85
2019-02-23T16:53:24.004Z,21.73
2019-02-23T16:55:52.479Z,22.45
2019-02-23T16:58:20.813Z,24.15
2019-02-23T17:00:49.661Z,23.70
2019-02-23T17:03:18.022Z,23.25
2019-02-23T17:05:46.438Z,21.82
2019-02-23T17:08:15.160Z,23.45
2019-02-23T17:10:43.577Z,22.75
2019-02-23T17:13:12.000Z,24.05
2019-02-23T17:15:40.351Z,28.25
2019-02-23T17:18:08.749Z,27.60
2019-02-23T17:20:37.175Z,28.30
2019-02-23T17:23:05.546Z,25.92
2019-02-23T17:25:33.889Z,29.27
2019-02-23T17:28:02.201Z,29.95
2019-02-23T17:30:30.517Z,31.23
2019-02-23T17:32:58.922Z,35.90
2019-02-23T17:35:27.260Z,35.58
2019-02-23T17:37:55.607Z,36.58
2019-02-23T17:40:24.146Z,80.65
2019-02-23T17:42:52.568Z,118.17
2019-02-23T17:45:20.879Z,41.85
2019-02-23T17:47:49.235Z,34.95
2019-02-23T17:50:17.548Z,33.75
2019-02-23T17:52:45.855Z,28.90
2019-02-23T17:55:14.207Z,27.73
2019-02-23T17:57:42.520Z,26.85
2019-02-23T18:00:13.600Z,26.12
2019-02-23T18:02:42.051Z,27.25
2019-02-23T18:05:10.456Z,25.45
2019-02-23T18:07:38.766Z,24.95
2019-02-23T18:10:07.539Z,23.02
2019-02-23T18:12:35.913Z,22.82
2019-02-23T18:15:07.141Z,22.52
2019-02-23T18:17:35.549Z,21.50
2019-02-23T18:20:05.998Z,23.40
2019-02-23T18:22:34.308Z,24.92
2019-02-23T18:25:02.639Z,20.62
2019-02-23T18:27:31.064Z,25.80
2019-02-23T18:29:59.446Z,24.75
2019-02-23T18:32:28.109Z,25.48
2019-02-23T18:34:56.490Z,25.37
2019-02-23T18:37:24.886Z,22.70
2019-02-23T18:39:53.701Z,24.77
2019-02-23T18:42:22.053Z,23.32
2019-02-23T18:44:50.381Z,22.82
2019-02-23T18:47:19.125Z,22.37
2019-02-23T18:49:47.474Z,23.52
2019-02-23T18:52:16.233Z,22.67
2019-02-23T18:54:44.624Z,27.10
2019-02-23T18:57:12.965Z,28.57
2019-02-23T18:59:41.354Z,26.68
2019-02-23T19:02:09.767Z,26.35
2019-02-23T19:04:38.091Z,26.02
2019-02-23T19:07:06.424Z,24.50
2019-02-23T19:09:34.797Z,27.45
2019-02-23T19:12:03.203Z,28.73
2019-02-23T19:14:31.552Z,24.70
2019-02-23T19:16:59.901Z,27.58
2019-02-23T19:19:28.218Z,26.60
2019-02-23T19:21:56.551Z,27.15
2019-02-23T19:24:24.972Z,25.50
2019-02-23T19:26:53.309Z,28.45
2019-02-23T19:29:21.629Z,27.30
2019-02-23T19:31:49.973Z,27.67
2019-02-23T19:34:18.304Z,34.70
2019-02-23T19:36:48.334Z,32.83
2019-02-23T19:39:16.936Z,30.43
2019-02-23T19:41:45.290Z,27.02
2019-02-23T19:44:13.620Z,29.07
2019-02-23T19:46:45.266Z,31.23
2019-02-23T19:49:13.642Z,33.00
2019-02-23T19:51:41.958Z,32.13
2019-02-23T19:54:10.290Z,29.00
2019-02-23T19:56:46.480Z,32.80
2019-02-23T19:59:08.695Z,31.68
2019-02-23T20:01:37.108Z,30.70
2019-02-23T20:04:05.429Z,31.20
2019-02-23T20:06:34.065Z,33.18
2019-02-23T20:09:02.440Z,33.00
2019-02-23T20:11:30.780Z,31.82
2019-02-23T20:13:59.131Z,30.30
2019-02-23T20:16:27.534Z,32.55
2019-02-23T20:18:55.852Z,28.83
2019-02-23T20:21:24.216Z,30.27
2019-02-23T20:23:52.616Z,37.67
2019-02-23T20:26:20.936Z,87.82
2019-02-23T20:28:49.268Z,64.30
2019-02-23T20:31:17.632Z,56.25
2019-02-23T20:33:45.908Z,36.93
2019-02-23T20:36:14.221Z,38.53
2019-02-23T20:38:42.579Z,31.07
2019-02-23T20:41:10.920Z,31.23
2019-02-23T20:43:39.337Z,30.08
2019-02-23T20:46:07.703Z,34.35
2019-02-23T20:48:36.137Z,38.67
2019-02-23T20:51:04.666Z,30.40
2019-02-23T20:53:32.986Z,28.55
2019-02-23T20:56:01.623Z,28.98
2019-02-23T20:58:30.441Z,28.65
2019-02-23T21:00:59.231Z,28.55
2019-02-23T21:03:27.617Z,31.55
2019-02-23T21:05:55.991Z,31.52
2019-02-23T21:08:24.409Z,32.83
2019-02-23T21:10:53.247Z,30.60
2019-02-23T21:13:21.729Z,32.17
2019-02-23T21:15:50.193Z,33.60
2019-02-23T21:18:18.516Z,32.10
2019-02-23T21:20:46.818Z,34.33
2019-02-23T21:23:15.239Z,32.13
2019-02-23T21:25:43.663Z,32.23
2019-02-23T21:28:11.989Z,34.98
2019-02-23T21:30:40.311Z,34.98
2019-02-23T21:33:08.645Z,33.55
2019-02-23T21:35:36.983Z,33.50
2019-02-23T21:38:05.357Z,31.07
2019-02-23T21:40:33.664Z,32.25
2019-02-23T21:43:01.978Z,35.95
2019-02-23T21:45:30.346Z,34.73
2019-02-23T21:47:58.736Z,35.15
2019-02-23T21:50:27.116Z,32.60
2019-02-23T21:52:55.523Z,35.03
2019-02-23T21:55:23.840Z,35.73
2019-02-23T21:57:52.243Z,35.43
2019-02-23T22:00:20.677Z,34.48
2019-02-23T22:02:49.070Z,33.15
2019-02-23T22:05:17.416Z,37.75
2019-02-23T22:07:46.080Z,37.10
2019-02-23T22:10:14.339Z,35.17
2019-02-23T22:12:42.691Z,36.80
2019-02-23T22:15:11.108Z,37.00
2019-02-23T22:17:39.478Z,35.85
2019-02-23T22:20:08.009Z,37.10
2019-02-23T22:22:36.351Z,33.10
2019-02-23T22:25:04.950Z,36.73
2019-02-23T22:27:33.333Z,35.40
2019-02-23T22:30:01.806Z,39.13
2019-02-23T22:32:30.198Z,33.23
2019-02-23T22:35:15.456Z,38.42
2019-02-23T22:37:43.760Z,37.83
2019-02-23T22:40:12.099Z,35.65
2019-02-23T22:42:40.439Z,37.20
2019-02-23T22:45:08.806Z,35.70
2019-02-23T22:47:37.137Z,35.75
2019-02-23T22:50:07.751Z,34.92
2019-02-23T22:52:36.156Z,37.55
2019-02-23T22:55:05.420Z,40.20
2019-02-23T22:57:40.201Z,39.00
2019-02-23T23:00:04.404Z,37.63
2019-02-23T23:02:32.798Z,40.05
2019-02-23T23:05:01.180Z,39.05
2019-02-23T23:07:29.550Z,39.08
2019-02-23T23:09:57.926Z,37.58
2019-02-23T23:12:26.304Z,44.27
2019-02-23T23:14:54.618Z,39.98
2019-02-23T23:17:23.002Z,42.35
2019-02-23T23:19:51.439Z,39.73
2019-02-23T23:22:19.758Z,41.42
2019-02-23T23:24:48.140Z,43.85
2019-02-23T23:27:16.524Z,37.45
2019-02-23T23:29:44.968Z,34.00
2019-02-23T23:32:13.348Z,39.13
2019-02-23T23:34:41.705Z,39.33
2019-02-23T23:37:10.089Z,38.73
2019-02-23T23:39:38.413Z,36.50
2019-02-23T23:42:06.759Z,39.18
2019-02-23T23:44:35.305Z,37.25
2019-02-23T23:47:03.818Z,39.42
2019-02-23T23:49:32.203Z,32.63
2019-02-23T23:52:00.555Z,34.92
2019-02-23T23:54:28.925Z,35.17
2019-02-23T23:56:57.274Z,35.08
2019-02-23T23:59:25.602Z,37.60
